Time,TemperatureF,DewpointF,PressureIn,WindDirection,WindDirectionDegrees,WindSpeedMPH,WindSpeedGustMPH,Humidity,HourlyPrecipIn,Conditions,Clouds,dailyrainin,SoftwareType,DateUTC
2013-08-29 00:01:00,62.2,60.4,29.81,ESE,112,0.0,-999.0,94,-99.99,,,0.00,Acu-Link.com,2013-08-29 07:01:00,
2013-08-29 00:17:00,62.2,60.4,29.80,ESE,112,0.0,-999.0,94,-99.99,,,0.00,Acu-Link.com,2013-08-29 07:17:00,
2013-08-29 00:32:00,62.1,60.6,29.80,ESE,112,0.0,-999.0,95,-99.99,,,0.00,Acu-Link.com,2013-08-29 07:32:00,
2013-08-29 00:47:00,61.7,60.3,29.80,ESE,112,0.0,-999.0,95,-99.99,,,0.00,Acu-Link.com,2013-08-29 07:47:00,
2013-08-29 01:03:00,61.7,60.3,29.79,WSW,247,0.0,-999.0,95,-99.99,,,0.00,Acu-Link.com,2013-08-29 08:03:00,
2013-08-29 01:18:00,61.9,60.7,29.79,NNE,22,0.0,-999.0,96,-99.99,,,0.00,Acu-Link.com,2013-08-29 08:18:00,
2013-08-29 01:33:00,61.7,61.1,29.79,ENE,67,0.0,-999.0,98,-99.99,,,0.00,Acu-Link.com,2013-08-29 08:33:00,
2013-08-29 01:48:00,61.5,60.9,29.79,SSE,157,0.0,-999.0,98,-99.99,,,0.00,Acu-Link.com,2013-08-29 08:48:00,
2013-08-29 02:03:00,61.3,60.7,29.80,ESE,112,0.0,-999.0,98,-99.99,,,0.00,Acu-Link.com,2013-08-29 09:03:00,
2013-08-29 02:19:00,61.2,60.6,29.78,ESE,112,0.0,-999.0,98,-99.99,,,0.00,Acu-Link.com,2013-08-29 09:19:00,
2013-08-29 02:34:00,60.8,60.2,29.78,ESE,112,0.0,-999.0,98,-99.99,,,0.00,Acu-Link.com,2013-08-29 09:34:00,
2013-08-29 02:49:00,60.6,60.0,29.78,ESE,112,0.0,-999.0,98,-99.99,,,0.00,Acu-Link.com,2013-08-29 09:49:00,
2013-08-29 03:04:00,60.8,60.2,29.78,WSW,247,0.0,-999.0,98,-99.99,,,0.00,Acu-Link.com,2013-08-29 10:04:00,
2013-08-29 03:19:00,60.8,60.2,29.79,ESE,112,0.0,-999.0,98,-99.99,,,0.00,Acu-Link.com,2013-08-29 10:19:00,
2013-08-29 03:35:00,60.8,60.2,29.79,East,90,0.0,-999.0,98,-99.99,,,0.01,Acu-Link.com,2013-08-29 10:35:00,
2013-08-29 03:50:00,60.8,60.2,29.79,East,90,0.0,-999.0,98,-99.99,,,0.02,Acu-Link.com,2013-08-29 10:50:00,
2013-08-29 04:05:00,61.0,60.4,29.78,East,90,0.0,-999.0,98,-99.99,,,0.02,Acu-Link.com,2013-08-29 11:05:00,
2013-08-29 04:21:00,61.0,60.4,29.79,SSW,202,0.0,-999.0,98,-99.99,,,0.02,Acu-Link.com,2013-08-29 11:21:00,
2013-08-29 04:36:00,60.8,60.2,29.79,South,180,0.0,-999.0,98,-99.99,,,0.02,Acu-Link.com,2013-08-29 11:36:00,
2013-08-29 04:51:00,61.0,60.4,29.81,South,180,0.0,-999.0,98,-99.99,,,0.02,Acu-Link.com,2013-08-29 11:51:00,
2013-08-29 05:06:00,61.0,60.4,29.80,WSW,247,0.0,-999.0,98,-99.99,,,0.02,Acu-Link.com,2013-08-29 12:06:00,
2013-08-29 05:22:00,60.8,60.2,29.81,ESE,112,0.0,-999.0,98,-99.99,,,0.02,Acu-Link.com,2013-08-29 12:22:00,
2013-08-29 05:37:00,60.8,60.2,29.78,NNE,22,0.0,-999.0,98,-99.99,,,0.02,Acu-Link.com,2013-08-29 12:37:00,
2013-08-29 05:52:00,61.2,60.6,29.77,SSE,157,0.0,-999.0,98,-99.99,,,0.03,Acu-Link.com,2013-08-29 12:52:00,
2013-08-29 06:07:00,61.2,60.6,29.77,WSW,247,0.0,-999.0,98,-99.99,,,0.13,Acu-Link.com,2013-08-29 13:07:00,
2013-08-29 06:23:00,61.3,60.7,29.78,ESE,112,0.0,-999.0,98,-99.99,,,0.18,Acu-Link.com,2013-08-29 13:23:00,
2013-08-29 06:38:00,61.3,60.7,29.79,NW,315,0.0,-999.0,98,-99.99,,,0.22,Acu-Link.com,2013-08-29 13:38:00,
2013-08-29 06:53:00,61.3,60.7,29.80,ESE,112,0.0,-999.0,98,-99.99,,,0.24,Acu-Link.com,2013-08-29 13:53:00,
2013-08-29 07:09:00,61.3,60.7,29.81,SE,135,0.0,-999.0,98,-99.99,,,0.26,Acu-Link.com,2013-08-29 14:09:00,
2013-08-29 07:24:00,61.3,60.7,29.80,NE,45,0.0,-999.0,98,-99.99,,,0.28,Acu-Link.com,2013-08-29 14:24:00,
2013-08-29 07:39:00,61.3,60.7,29.80,ESE,112,0.0,-999.0,98,-99.99,,,0.29,Acu-Link.com,2013-08-29 14:39:00,
2013-08-29 07:55:00,61.9,61.3,29.81,SW,225,0.0,-999.0,98,-99.99,,,0.30,Acu-Link.com,2013-08-29 14:55:00,
2013-08-29 08:10:00,62.4,61.8,29.81,ESE,112,0.0,-999.0,98,-99.99,,,0.30,Acu-Link.com,2013-08-29 15:10:00,
2013-08-29 08:25:00,63.5,62.9,29.82,ESE,112,0.0,-999.0,98,-99.99,,,0.30,Acu-Link.com,2013-08-29 15:25:00,
2013-08-29 08:40:00,63.7,63.1,29.82,SSW,202,0.0,-999.0,98,-99.99,,,0.30,Acu-Link.com,2013-08-29 15:40:00,
2013-08-29 08:56:00,64.2,63.6,29.83,West,270,0.0,-999.0,98,-99.99,,,0.30,Acu-Link.com,2013-08-29 15:56:00,
2013-08-29 09:11:00,64.9,64.3,29.83,West,270,0.0,-999.0,98,-99.99,,,0.30,Acu-Link.com,2013-08-29 16:11:00,
2013-08-29 09:26:00,68.4,66.0,29.83,North,0,0.0,-999.0,92,-99.99,,,0.30,Acu-Link.com,2013-08-29 16:26:00,
2013-08-29 09:42:00,67.5,65.4,29.83,ENE,67,0.0,-999.0,93,-99.99,,,0.30,Acu-Link.com,2013-08-29 16:42:00,
2013-08-29 09:57:00,68.4,66.0,29.84,NE,45,0.0,-999.0,92,-99.99,,,0.30,Acu-Link.com,2013-08-29 16:57:00,
2013-08-29 10:12:00,68.0,66.2,29.87,SSW,202,0.0,-999.0,94,-99.99,,,0.32,Acu-Link.com,2013-08-29 17:12:00,
2013-08-29 10:27:00,67.5,65.7,29.86,WNW,292,0.0,-999.0,94,-99.99,,,0.32,Acu-Link.com,2013-08-29 17:27:00,
2013-08-29 10:43:00,67.6,66.1,29.87,SW,225,0.0,-999.0,95,-99.99,,,0.35,Acu-Link.com,2013-08-29 17:43:00,
2013-08-29 10:58:00,68.0,66.8,29.88,ESE,112,0.0,-999.0,96,-99.99,,,0.42,Acu-Link.com,2013-08-29 17:58:00,
2013-08-29 11:13:00,68.0,67.4,29.87,South,180,0.0,-999.0,98,-99.99,,,0.43,Acu-Link.com,2013-08-29 18:13:00,
2013-08-29 11:28:00,68.4,67.2,29.88,West,270,0.0,-999.0,96,-99.99,,,0.43,Acu-Link.com,2013-08-29 18:28:00,
2013-08-29 11:44:00,70.2,67.8,29.89,SSE,157,0.0,-999.0,92,-99.99,,,0.44,Acu-Link.com,2013-08-29 18:44:00,
2013-08-29 11:59:00,70.9,68.1,29.89,ESE,112,0.0,-999.0,91,-99.99,,,0.44,Acu-Link.com,2013-08-29 18:59:00,
2013-08-29 12:14:00,70.9,69.4,29.88,WSW,247,0.0,-999.0,95,-99.99,,,0.44,Acu-Link.com,2013-08-29 19:14:00,
2013-08-29 12:29:00,71.1,68.7,29.89,SSW,202,0.0,-999.0,92,-99.99,,,0.44,Acu-Link.com,2013-08-29 19:29:00,
2013-08-29 12:45:00,74.3,69.5,29.88,South,180,3.7,-999.0,85,-99.99,,,0.44,Acu-Link.com,2013-08-29 19:45:00,
2013-08-29 13:00:00,73.6,68.1,29.89,West,270,4.2,-999.0,83,-99.99,,,0.44,Acu-Link.com,2013-08-29 20:00:00,
2013-08-29 13:15:00,74.5,67.2,29.89,SW,225,4.2,-999.0,78,-99.99,,,0.44,Acu-Link.com,2013-08-29 20:15:00,
2013-08-29 13:31:00,74.8,67.5,29.91,SW,225,6.3,-999.0,78,-99.99,,,0.44,Acu-Link.com,2013-08-29 20:31:00,
2013-08-29 13:46:00,75.0,66.9,29.89,SW,225,7.3,-999.0,76,-99.99,,,0.44,Acu-Link.com,2013-08-29 20:46:00,
2013-08-29 14:01:00,76.1,67.2,29.90,SW,225,9.4,-999.0,74,-99.99,,,0.44,Acu-Link.com,2013-08-29 21:01:00,
2013-08-29 14:16:00,76.1,66.0,29.91,WSW,247,6.3,-999.0,71,-99.99,,,0.44,Acu-Link.com,2013-08-29 21:16:00,
2013-08-29 14:31:00,77.9,65.6,29.90,SW,225,15.5,-999.0,66,-99.99,,,0.44,Acu-Link.com,2013-08-29 21:31:00,
2013-08-29 14:46:00,77.7,66.3,29.91,SSW,202,4.7,-999.0,68,-99.99,,,0.44,Acu-Link.com,2013-08-29 21:46:00,
2013-08-29 15:01:00,78.1,64.9,29.90,SSE,157,5.3,-999.0,64,-99.99,,,0.44,Acu-Link.com,2013-08-29 22:01:00,
2013-08-29 15:16:00,79.0,64.8,29.91,SW,225,4.7,-999.0,62,-99.99,,,0.44,Acu-Link.com,2013-08-29 22:16:00,
2013-08-29 15:32:00,78.6,64.9,29.91,West,270,10.4,-999.0,63,-99.99,,,0.44,Acu-Link.com,2013-08-29 22:32:00,
2013-08-29 15:47:00,80.1,65.9,29.91,WSW,247,10.9,-999.0,62,-99.99,,,0.44,Acu-Link.com,2013-08-29 22:47:00,
2013-08-29 16:02:00,77.0,65.6,29.91,WSW,247,6.3,-999.0,68,-99.99,,,0.44,Acu-Link.com,2013-08-29 23:02:00,
2013-08-29 16:17:00,75.9,65.4,29.91,WSW,247,7.8,-999.0,70,-99.99,,,0.44,Acu-Link.com,2013-08-29 23:17:00,
2013-08-29 16:32:00,75.2,65.1,29.92,WSW,247,6.3,-999.0,71,-99.99,,,0.44,Acu-Link.com,2013-08-29 23:32:00,
2013-08-29 16:47:00,74.5,64.9,29.92,SW,225,5.3,-999.0,72,-99.99,,,0.44,Acu-Link.com,2013-08-29 23:47:00,
2013-08-29 17:02:00,75.6,65.5,29.92,SW,225,8.9,-999.0,71,-99.99,,,0.44,Acu-Link.com,2013-08-30 00:02:00,
2013-08-29 17:18:00,75.2,65.1,29.93,WNW,292,6.8,-999.0,71,-99.99,,,0.44,Acu-Link.com,2013-08-30 00:18:00,
2013-08-29 17:33:00,74.5,64.9,29.92,WSW,247,7.8,-999.0,72,-99.99,,,0.44,Acu-Link.com,2013-08-30 00:33:00,
2013-08-29 17:48:00,73.8,64.2,29.92,SW,225,4.7,-999.0,72,-99.99,,,0.44,Acu-Link.com,2013-08-30 00:48:00,
2013-08-29 18:03:00,73.4,64.2,29.92,SSW,202,6.8,-999.0,73,-99.99,,,0.44,Acu-Link.com,2013-08-30 01:03:00,
2013-08-29 18:18:00,72.9,64.5,29.94,SSW,202,7.8,-999.0,75,-99.99,,,0.44,Acu-Link.com,2013-08-30 01:18:00,
2013-08-29 18:33:00,72.0,64.0,29.93,West,270,7.8,-999.0,76,-99.99,,,0.44,Acu-Link.com,2013-08-30 01:33:00,
2013-08-29 18:49:00,71.4,63.8,29.94,SSW,202,7.8,-999.0,77,-99.99,,,0.44,Acu-Link.com,2013-08-30 01:49:00,
2013-08-29 19:04:00,72.0,64.4,29.93,SSW,202,5.3,-999.0,77,-99.99,,,0.44,Acu-Link.com,2013-08-30 02:04:00,
2013-08-29 19:19:00,70.9,64.4,29.95,WSW,247,5.8,-999.0,80,-99.99,,,0.44,Acu-Link.com,2013-08-30 02:19:00,
2013-08-29 19:34:00,70.3,64.2,29.94,WNW,292,3.7,-999.0,81,-99.99,,,0.44,Acu-Link.com,2013-08-30 02:34:00,
2013-08-29 19:49:00,69.6,64.5,29.96,West,270,3.7,-999.0,84,-99.99,,,0.44,Acu-Link.com,2013-08-30 02:49:00,
2013-08-29 20:04:00,69.1,64.4,29.95,NNW,337,3.2,-999.0,85,-99.99,,,0.44,Acu-Link.com,2013-08-30 03:04:00,
2013-08-29 20:19:00,68.2,64.8,29.95,WSW,247,1.1,-999.0,89,-99.99,,,0.44,Acu-Link.com,2013-08-30 03:19:00,
2013-08-29 20:35:00,67.6,64.9,29.96,West,270,0.0,-999.0,91,-99.99,,,0.44,Acu-Link.com,2013-08-30 03:35:00,
2013-08-29 20:50:00,67.5,65.1,29.97,ESE,112,0.0,-999.0,92,-99.99,,,0.44,Acu-Link.com,2013-08-30 03:50:00,
2013-08-29 21:05:00,67.5,65.1,29.98,SSE,157,0.0,-999.0,92,-99.99,,,0.44,Acu-Link.com,2013-08-30 04:05:00,
2013-08-29 21:20:00,67.1,65.0,29.97,West,270,0.0,-999.0,93,-99.99,,,0.44,Acu-Link.com,2013-08-30 04:20:00,
2013-08-29 21:36:00,67.3,64.9,29.97,SW,225,0.0,-999.0,92,-99.99,,,0.44,Acu-Link.com,2013-08-30 04:36:00,
2013-08-29 21:51:00,66.9,64.8,29.99,ESE,112,0.0,-999.0,93,-99.99,,,0.44,Acu-Link.com,2013-08-30 04:51:00,
2013-08-29 22:06:00,66.6,64.8,29.97,ENE,67,0.0,-999.0,94,-99.99,,,0.44,Acu-Link.com,2013-08-30 05:06:00,
2013-08-29 22:22:00,66.4,64.6,29.98,West,270,0.0,-999.0,94,-99.99,,,0.44,Acu-Link.com,2013-08-30 05:22:00,
2013-08-29 22:37:00,66.6,64.8,29.99,NE,45,0.0,-999.0,94,-99.99,,,0.44,Acu-Link.com,2013-08-30 05:37:00,
2013-08-29 22:52:00,66.6,64.8,29.98,SSW,202,0.0,-999.0,94,-99.99,,,0.44,Acu-Link.com,2013-08-30 05:52:00,
2013-08-29 23:08:00,66.4,64.6,30.00,ESE,112,0.0,-999.0,94,-99.99,,,0.44,Acu-Link.com,2013-08-30 06:08:00,
2013-08-29 23:23:00,66.2,64.7,29.99,WNW,292,4.2,-999.0,95,-99.99,,,0.44,Acu-Link.com,2013-08-30 06:23:00,
2013-08-29 23:38:00,65.8,65.2,30.00,SW,225,3.7,-999.0,98,-99.99,,,0.44,Acu-Link.com,2013-08-30 06:38:00,
2013-08-29 23:53:00,65.7,65.1,30.00,SW,225,0.0,-999.0,98,-99.99,,,0.44,Acu-Link.com,2013-08-30 06:53:00,